Time;durP1;ratioP1;P1;durP2;ratioP2;P2;SDS_P1;SDS_P2;PMS_P1;PMS_P2;Temp;Humidity;BMP_temperature;BMP_pressure;BME280_temperature;BME280_humidity;BME280_pressure;Samples;Min_cycle;Max_cycle;Signal;HPM_P1;HPM_P2
2022/06/15 00:00:34;;;;;;;4.27;2.73;;;15.50;99.90;;;;;;4932362;29;20205;-74
2022/06/15 00:03:01;;;;;;;5.20;2.60;;;15.50;99.90;;;;;;4927431;29;20203;-74
2022/06/15 00:05:28;;;;;;;3.13;2.70;;;15.50;99.90;;;;;;4935889;29;20198;-74
2022/06/15 00:07:55;;;;;;;5.53;2.97;;;15.50;99.90;;;;;;4933716;28;20202;-74
2022/06/15 00:10:22;;;;;;;3.63;2.70;;;15.60;99.90;;;;;;4934557;29;20211;-75
2022/06/15 00:12:49;;;;;;;3.00;2.40;;;15.40;99.90;;;;;;4929069;29;20203;-74
2022/06/15 00:15:16;;;;;;;4.43;3.00;;;15.30;99.90;;;;;;4933947;29;20218;-73
2022/06/15 00:17:42;;;;;;;4.80;2.80;;;15.50;99.90;;;;;;4924511;29;20737;-75
2022/06/15 00:20:09;;;;;;;4.87;3.30;;;15.40;99.90;;;;;;4933892;29;20194;-75
2022/06/15 00:22:36;;;;;;;3.40;2.70;;;15.30;99.90;;;;;;4926718;29;20230;-74
2022/06/15 00:25:03;;;;;;;4.60;2.60;;;15.20;99.90;;;;;;4929330;29;20266;-75
2022/06/15 00:27:29;;;;;;;5.53;2.50;;;15.10;99.90;;;;;;4922079;29;20552;-75
2022/06/15 00:29:56;;;;;;;5.27;2.90;;;15.20;99.90;;;;;;4933812;29;20588;-73
2022/06/15 00:32:22;;;;;;;4.33;2.80;;;15.30;99.90;;;;;;4928133;29;20222;-74
2022/06/15 00:34:49;;;;;;;3.67;2.60;;;15.40;99.90;;;;;;4933325;29;20730;-74
2022/06/15 00:37:16;;;;;;;3.37;2.50;;;15.50;99.90;;;;;;4925454;29;20619;-75
2022/06/15 00:39:42;;;;;;;3.60;2.87;;;15.30;99.90;;;;;;4933684;29;20191;-75
2022/06/15 00:42:11;;;;;;;2.90;2.30;;;15.20;99.90;;;;;;4927651;29;20223;-75
2022/06/15 00:44:39;;;;;;;3.63;2.43;;;15.10;99.90;;;;;;4927049;29;20207;-75
2022/06/15 00:47:17;;;;;;;4.23;2.73;;;15.20;99.90;;;;;;4931133;29;20202;-75
2022/06/15 00:50:09;;;;;;;2.80;2.33;;;15.20;99.90;;;;;;4930538;29;20203;-75
2022/06/15 00:53:01;;;;;;;3.17;2.30;;;15.10;99.90;;;;;;4920124;29;20233;-73
2022/06/15 00:55:33;;;;;;;2.30;1.90;;;15.00;99.90;;;;;;4931872;29;20250;-75
2022/06/15 00:58:03;;;;;;;3.87;2.30;;;14.80;99.90;;;;;;4933282;28;20194;-75
2022/06/15 01:00:30;;;;;;;4.17;2.20;;;14.80;99.90;;;;;;4929934;29;20197;-75
2022/06/15 01:02:57;;;;;;;3.60;2.10;;;14.80;99.90;;;;;;4933239;29;20206;-75
2022/06/15 01:05:35;;;;;;;2.17;1.87;;;14.80;99.90;;;;;;4929361;29;20572;-74
2022/06/15 01:08:11;;;;;;;2.27;1.87;;;14.80;99.90;;;;;;4932431;29;20273;-76
2022/06/15 01:11:02;;;;;;;2.43;2.00;;;14.60;99.90;;;;;;4929888;29;20206;-75
2022/06/15 01:13:39;;;;;;;2.33;2.00;;;14.50;99.90;;;;;;4925760;29;20253;-76
2022/06/15 01:16:41;;;;;;;2.67;1.97;;;14.40;99.90;;;;;;4928031;29;20214;-75
2022/06/15 01:19:13;;;;;;;3.10;2.00;;;14.40;99.90;;;;;;4924854;29;20232;-75
2022/06/15 01:21:48;;;;;;;3.23;2.00;;;14.30;99.90;;;;;;4927272;29;20223;-75
2022/06/15 01:25:06;;;;;;;2.60;2.00;;;14.30;99.90;;;;;;4949530;28;20208;-75
2022/06/15 01:27:49;;;;;;;2.20;2.00;;;14.20;99.90;;;;;;4902541;29;20278;-75
2022/06/15 01:30:35;;;;;;;3.73;2.20;;;14.10;99.90;;;;;;4927465;29;20206;-75
2022/06/15 01:33:16;;;;;;;2.90;2.40;;;14.20;99.90;;;;;;4931909;29;20198;-76
2022/06/15 01:35:54;;;;;;;3.80;2.27;;;14.30;99.90;;;;;;4932017;29;20688;-75
2022/06/15 01:38:25;;;;;;;2.87;2.33;;;14.30;99.90;;;;;;4935911;29;20197;-75
2022/06/15 01:41:03;;;;;;;4.00;2.10;;;14.20;99.90;;;;;;4928688;29;20225;-74
2022/06/15 01:43:35;;;;;;;4.03;2.67;;;14.20;99.90;;;;;;4927077;29;20492;-75
2022/06/15 01:46:03;;;;;;;4.63;2.33;;;14.10;99.90;;;;;;4933833;29;20684;-75
2022/06/15 01:48:31;;;;;;;3.13;2.53;;;14.10;99.90;;;;;;4926114;29;20207;-75
2022/06/15 01:51:21;;;;;;;3.83;2.50;;;14.00;99.90;;;;;;4930364;29;20708;-75
2022/06/15 01:53:57;;;;;;;4.60;2.70;;;14.10;99.90;;;;;;4929367;29;20734;-75
2022/06/15 01:56:35;;;;;;;2.63;2.20;;;14.30;99.90;;;;;;4931797;29;20285;-76
2022/06/15 01:59:10;;;;;;;4.17;2.40;;;14.20;99.90;;;;;;4926514;29;20204;-75
2022/06/15 02:02:05;;;;;;;2.73;2.20;;;14.10;99.90;;;;;;4934173;29;20294;-74
2022/06/15 02:04:50;;;;;;;3.80;2.10;;;14.00;99.90;;;;;;4936281;29;20680;-74
2022/06/15 02:07:49;;;;;;;3.70;2.20;;;13.90;99.90;;;;;;4926927;29;20207;-75
2022/06/15 02:10:22;;;;;;;4.27;2.30;;;13.90;99.90;;;;;;4932673;29;20424;-75
2022/06/15 02:13:01;;;;;;;2.43;2.10;;;14.00;99.90;;;;;;4931556;29;20613;-75
2022/06/15 02:15:29;;;;;;;5.57;2.30;;;13.90;99.90;;;;;;4938412;29;20634;-75
2022/06/15 02:18:00;;;;;;;2.73;2.30;;;13.80;99.90;;;;;;4931377;29;20208;-74
2022/06/15 02:20:36;;;;;;;2.77;2.13;;;13.70;99.90;;;;;;4931623;29;20206;-75
2022/06/15 02:23:06;;;;;;;4.33;2.33;;;13.70;99.90;;;;;;4941047;29;20203;-74
2022/06/15 02:25:36;;;;;;;4.67;2.30;;;13.70;99.90;;;;;;4926563;29;20214;-73
2022/06/15 02:28:03;;;;;;;4.20;2.10;;;13.60;99.90;;;;;;4939161;29;20203;-74
2022/06/15 02:30:31;;;;;;;2.90;2.20;;;13.60;99.90;;;;;;4929362;29;20615;-75
2022/06/15 02:33:23;;;;;;;3.97;2.10;;;13.60;99.90;;;;;;4933082;29;20202;-74
2022/06/15 02:35:50;;;;;;;2.27;2.07;;;13.60;99.90;;;;;;4936192;29;20227;-75
2022/06/15 02:38:17;;;;;;;2.37;2.17;;;13.60;99.90;;;;;;4929028;29;20206;-74
2022/06/15 02:40:44;;;;;;;3.73;2.40;;;13.60;99.90;;;;;;4936999;28;20247;-74
2022/06/15 02:43:14;;;;;;;3.27;2.40;;;13.60;99.90;;;;;;4933291;29;20430;-75
2022/06/15 02:45:41;;;;;;;2.73;2.30;;;13.60;99.90;;;;;;4931871;29;20205;-75
2022/06/15 02:48:09;;;;;;;2.50;2.10;;;13.60;99.90;;;;;;4934683;29;20233;-74
2022/06/15 02:50:47;;;;;;;3.93;2.37;;;13.60;99.90;;;;;;4924976;29;20203;-74
2022/06/15 02:53:18;;;;;;;3.30;2.50;;;13.50;99.90;;;;;;4934780;29;20205;-75
2022/06/15 02:55:48;;;;;;;3.20;2.43;;;13.50;99.90;;;;;;4933357;29;20229;-74
2022/06/15 02:58:24;;;;;;;3.80;2.50;;;13.50;99.90;;;;;;4932593;29;20666;-73
2022/06/15 03:00:50;;;;;;;3.40;2.57;;;13.50;99.90;;;;;;4932186;29;20225;-75
2022/06/15 03:03:17;;;;;;;5.30;2.70;;;13.50;99.90;;;;;;4932783;29;20196;-76
2022/06/15 03:05:47;;;;;;;4.87;2.77;;;13.50;99.90;;;;;;4933479;29;20208;-76
2022/06/15 03:08:15;;;;;;;4.80;2.70;;;13.50;99.90;;;;;;4930808;29;20626;-73
2022/06/15 03:10:41;;;;;;;6.37;2.70;;;13.70;99.90;;;;;;4932350;29;20759;-74
2022/06/15 03:13:08;;;;;;;3.20;2.90;;;13.70;99.90;;;;;;4932525;29;20195;-76
2022/06/15 03:15:35;;;;;;;5.07;3.43;;;13.60;99.90;;;;;;4933261;29;20218;-74
2022/06/15 03:18:02;;;;;;;6.43;3.23;;;13.80;99.90;;;;;;4931420;29;20744;-76
2022/06/15 03:20:28;;;;;;;3.97;3.13;;;13.60;99.90;;;;;;4937463;28;20197;-76
2022/06/15 03:22:55;;;;;;;4.83;2.87;;;13.50;99.90;;;;;;4937794;28;20217;-74
2022/06/15 03:25:22;;;;;;;5.50;3.13;;;13.50;99.90;;;;;;4932706;29;20201;-74
2022/06/15 03:27:49;;;;;;;3.57;2.80;;;13.40;99.90;;;;;;4926321;29;20215;-75
2022/06/15 03:30:16;;;;;;;4.33;3.07;;;13.40;99.90;;;;;;4933539;29;20212;-75
2022/06/15 03:32:43;;;;;;;4.07;2.80;;;13.40;99.90;;;;;;4939820;29;20223;-75
2022/06/15 03:35:10;;;;;;;5.60;3.03;;;13.50;99.90;;;;;;4933170;29;20384;-76
2022/06/15 03:37:40;;;;;;;3.40;2.40;;;13.40;99.90;;;;;;4930840;28;20696;-75
2022/06/15 03:40:10;;;;;;;3.60;2.60;;;13.50;99.90;;;;;;4931815;29;20199;-75
2022/06/15 03:42:40;;;;;;;2.73;2.30;;;13.40;99.90;;;;;;4932242;29;20270;-74
2022/06/15 03:45:10;;;;;;;3.90;2.60;;;13.40;99.90;;;;;;4931799;29;20199;-74
2022/06/15 03:47:36;;;;;;;4.30;2.60;;;13.40;99.90;;;;;;4935174;29;20211;-75
2022/06/15 03:50:03;;;;;;;3.23;2.60;;;13.40;99.90;;;;;;4925877;29;20198;-75
2022/06/15 03:52:30;;;;;;;3.37;2.40;;;13.60;99.90;;;;;;4935376;28;20222;-74
2022/06/15 03:54:56;;;;;;;3.40;2.50;;;13.60;99.90;;;;;;4930671;29;20226;-75
2022/06/15 03:57:23;;;;;;;3.63;2.50;;;13.60;99.90;;;;;;4929822;29;21254;-73
2022/06/15 03:59:51;;;;;;;2.83;2.40;;;13.70;99.90;;;;;;4931904;29;20199;-75
2022/06/15 04:02:17;;;;;;;2.73;2.33;;;13.70;99.90;;;;;;4932614;29;20236;-73
2022/06/15 04:04:44;;;;;;;6.50;2.83;;;13.70;99.90;;;;;;4931867;29;20208;-74
2022/06/15 04:09:56;;;;;;;4.90;2.57;;;13.80;99.90;;;;;;4937610;29;20210;-74
2022/06/15 04:12:23;;;;;;;4.17;2.40;;;13.90;99.90;;;;;;4936632;29;20232;-77
2022/06/15 04:14:50;;;;;;;3.53;2.93;;;13.90;99.90;;;;;;4933142;29;20205;-74
2022/06/15 04:17:18;;;;;;;3.83;2.60;;;14.00;99.90;;;;;;4933382;29;20278;-73
2022/06/15 04:20:31;;;;;;;5.07;3.10;;;14.20;99.90;;;;;;4926673;29;20212;-73
2022/06/15 04:22:31;;;;;;;4.63;3.17;;;14.30;99.90;;;;;;4929748;29;20235;-74
2022/06/15 04:24:58;;;;;;;5.70;3.30;;;14.50;99.90;;;;;;4931005;29;20206;-74
2022/06/15 04:27:25;;;;;;;6.30;2.93;;;14.50;99.90;;;;;;4929296;29;20206;-74
2022/06/15 04:29:51;;;;;;;3.63;2.80;;;14.50;99.90;;;;;;4935812;29;20199;-74
2022/06/15 04:32:18;;;;;;;3.67;3.07;;;14.50;99.90;;;;;;4924225;29;20763;-75
2022/06/15 04:34:45;;;;;;;6.33;3.00;;;14.60;99.90;;;;;;4926970;29;20746;-74
2022/06/15 04:37:11;;;;;;;4.80;2.97;;;14.70;99.90;;;;;;4931041;29;20228;-74
2022/06/15 04:39:38;;;;;;;6.07;3.27;;;14.70;99.90;;;;;;4932815;29;20213;-74
2022/06/15 04:42:05;;;;;;;5.73;2.93;;;14.80;99.90;;;;;;4929069;29;20290;-74
2022/06/15 04:44:31;;;;;;;4.60;3.17;;;15.00;99.90;;;;;;4929175;29;20202;-74
2022/06/15 04:47:01;;;;;;;6.13;3.00;;;15.10;99.90;;;;;;4927698;29;20195;-73
2022/06/15 04:49:27;;;;;;;5.27;3.27;;;15.30;99.90;;;;;;4931151;29;20203;-74
2022/06/15 04:51:54;;;;;;;6.27;3.50;;;15.50;99.90;;;;;;4924827;29;20237;-73
2022/06/15 04:54:22;;;;;;;4.30;3.23;;;15.50;99.90;;;;;;4933459;29;20266;-74
2022/06/15 04:56:48;;;;;;;6.23;3.50;;;15.50;99.90;;;;;;4937928;29;20233;-74
2022/06/15 04:59:17;;;;;;;5.13;3.50;;;15.50;99.90;;;;;;4935193;29;20195;-74
2022/06/15 05:01:44;;;;;;;4.93;3.10;;;15.70;99.90;;;;;;4934894;29;20221;-74
2022/06/15 05:04:11;;;;;;;5.40;3.37;;;15.80;99.90;;;;;;4932516;29;20242;-75
2022/06/15 05:06:40;;;;;;;7.03;3.60;;;15.80;99.90;;;;;;4927201;29;20211;-74
2022/06/15 05:09:11;;;;;;;5.50;3.30;;;15.80;99.90;;;;;;4928692;29;20206;-74
2022/06/15 05:11:37;;;;;;;4.53;3.00;;;15.90;99.90;;;;;;4927206;29;20242;-74
2022/06/15 05:14:04;;;;;;;8.10;3.50;;;15.90;99.90;;;;;;4932402;29;20210;-74
2022/06/15 05:16:31;;;;;;;6.13;3.10;;;15.90;99.90;;;;;;4932615;29;20222;-74
2022/06/15 05:18:58;;;;;;;4.37;2.87;;;16.00;99.90;;;;;;4929972;29;20291;-74
2022/06/15 05:21:27;;;;;;;5.73;3.33;;;16.10;99.90;;;;;;4917821;29;20230;-74
2022/06/15 05:23:53;;;;;;;5.97;3.17;;;16.10;99.90;;;;;;4924836;29;20203;-75
2022/06/15 05:26:24;;;;;;;5.53;3.10;;;16.20;99.90;;;;;;4929783;29;20203;-74
2022/06/15 05:28:52;;;;;;;5.47;3.20;;;16.60;99.90;;;;;;4927568;29;20258;-75
2022/06/15 05:31:21;;;;;;;5.17;3.17;;;16.80;99.90;;;;;;4916394;29;20252;-75
2022/06/15 05:33:53;;;;;;;3.30;2.50;;;17.00;99.90;;;;;;4935546;29;20255;-75
2022/06/15 05:36:26;;;;;;;3.93;2.80;;;17.10;99.90;;;;;;4931874;29;20219;-75
2022/06/15 05:38:53;;;;;;;6.90;3.20;;;17.30;99.90;;;;;;4930609;29;20204;-73
2022/06/15 05:41:20;;;;;;;6.37;3.60;;;17.40;99.90;;;;;;4933879;29;20262;-75
2022/06/15 05:43:57;;;;;;;5.90;3.07;;;17.60;99.90;;;;;;4931199;29;20215;-75
2022/06/15 05:46:28;;;;;;;4.27;3.00;;;17.80;99.90;;;;;;4934133;29;20281;-75
2022/06/15 05:48:54;;;;;;;4.80;2.70;;;17.90;99.90;;;;;;4932169;29;20237;-75
2022/06/15 05:51:21;;;;;;;3.67;2.60;;;18.00;99.90;;;;;;4931518;29;20227;-74
2022/06/15 05:53:48;;;;;;;3.73;2.30;;;18.10;99.90;;;;;;4933731;29;20207;-73
2022/06/15 05:56:16;;;;;;;4.90;2.70;;;18.20;99.90;;;;;;4924164;29;20199;-73
2022/06/15 05:58:43;;;;;;;2.90;2.40;;;18.30;99.90;;;;;;4930244;29;20692;-73
2022/06/15 06:01:13;;;;;;;6.03;2.50;;;18.30;99.90;;;;;;4933746;29;20226;-73
2022/06/15 06:03:40;;;;;;;4.27;2.80;;;18.30;99.90;;;;;;4932720;29;20191;-73
2022/06/15 06:06:08;;;;;;;3.47;2.60;;;18.60;99.90;;;;;;4925221;29;20683;-72
2022/06/15 06:08:34;;;;;;;4.83;2.43;;;18.70;99.90;;;;;;4923565;29;20207;-70
2022/06/15 06:11:01;;;;;;;8.13;2.40;;;18.80;99.90;;;;;;4924804;29;20598;-74
2022/06/15 06:13:28;;;;;;;5.03;2.63;;;18.90;99.90;;;;;;4925721;29;20195;-73
2022/06/15 06:15:56;;;;;;;5.53;2.60;;;19.00;99.90;;;;;;4926246;29;20210;-73
2022/06/15 06:18:23;;;;;;;6.17;2.40;;;19.10;99.90;;;;;;4927997;29;20708;-74
2022/06/15 06:20:51;;;;;;;5.07;2.67;;;19.40;99.90;;;;;;4925494;29;20271;-72
2022/06/15 06:23:18;;;;;;;8.10;2.40;;;20.00;99.90;;;;;;4926704;29;20222;-73
2022/06/15 06:25:47;;;;;;;4.23;2.50;;;20.50;99.90;;;;;;4927949;29;20217;-74
2022/06/15 06:28:26;;;;;;;7.43;2.60;;;20.70;99.90;;;;;;4924427;29;20203;-73
2022/06/15 06:30:53;;;;;;;5.97;2.20;;;20.80;99.90;;;;;;4920664;29;20231;-74
2022/06/15 06:33:20;;;;;;;9.40;2.50;;;20.70;99.90;;;;;;4926473;29;20717;-74
2022/06/15 06:35:47;;;;;;;4.43;2.05;;;20.70;99.90;;;;;;4926603;29;20242;-74
2022/06/15 06:38:17;;;;;;;8.45;2.10;;;20.80;99.90;;;;;;4928067;29;20609;-73
2022/06/15 06:40:43;;;;;;;4.30;1.80;;;20.90;99.90;;;;;;4925675;29;20210;-74
2022/06/15 06:43:10;;;;;;;2.33;1.98;;;21.00;99.90;;;;;;4921843;29;20202;-74
2022/06/15 06:45:36;;;;;;;3.90;2.10;;;21.10;99.90;;;;;;4926041;29;21000;-74
2022/06/15 06:48:03;;;;;;;3.70;2.20;;;21.20;99.90;;;;;;4928383;29;20199;-74
2022/06/15 06:50:30;;;;;;;5.72;2.00;;;21.40;99.90;;;;;;4925560;29;20203;-74
2022/06/15 06:52:57;;;;;;;4.38;2.45;;;21.40;99.90;;;;;;4926727;29;20463;-73
2022/06/15 06:55:27;;;;;;;4.15;2.15;;;21.50;99.90;;;;;;4924065;29;20206;-74
2022/06/15 06:57:58;;;;;;;4.50;2.17;;;21.70;99.90;;;;;;4925051;29;20707;-73
2022/06/15 07:00:26;;;;;;;3.47;2.17;;;22.10;99.90;;;;;;4924121;29;20255;-71
2022/06/15 07:02:52;;;;;;;4.85;2.42;;;22.40;99.90;;;;;;4924361;29;20206;-71
2022/06/15 07:05:24;;;;;;;3.25;2.15;;;22.70;99.90;;;;;;4925869;29;20697;-72
2022/06/15 07:07:50;;;;;;;8.57;2.60;;;23.20;99.90;;;;;;4925090;29;20207;-73
2022/06/15 07:10:17;;;;;;;4.32;2.80;;;23.90;99.90;;;;;;4924592;29;20210;-72
2022/06/15 07:12:44;;;;;;;3.03;1.88;;;25.00;99.90;;;;;;4925183;29;20781;-72
2022/06/15 07:15:13;;;;;;;4.25;2.38;;;25.40;99.90;;;;;;4924185;29;20203;-74
2022/06/15 07:17:40;;;;;;;3.97;2.35;;;25.80;99.90;;;;;;4916960;29;21048;-72
2022/06/15 07:20:09;;;;;;;4.43;2.30;;;25.90;99.90;;;;;;4925105;29;20215;-69
2022/06/15 07:22:37;;;;;;;5.70;2.15;;;26.40;99.90;;;;;;4928711;29;20702;-72
2022/06/15 07:25:06;;;;;;;5.00;2.10;;;26.70;99.90;;;;;;4927619;29;20203;-72
2022/06/15 07:27:34;;;;;;;8.43;2.40;;;27.20;99.90;;;;;;4927092;29;20202;-71
2022/06/15 07:30:04;;;;;;;8.45;2.65;;;27.50;99.90;;;;;;4927677;29;20210;-70
2022/06/15 07:32:31;;;;;;;6.97;2.38;;;28.00;99.90;;;;;;4924895;29;20719;-71
2022/06/15 07:34:57;;;;;;;5.65;2.65;;;28.20;99.60;;;;;;4919909;29;20212;-73
2022/06/15 07:37:24;;;;;;;4.57;2.20;;;28.60;99.10;;;;;;4922733;29;20219;-74
2022/06/15 07:40:12;;;;;;;8.10;2.28;;;28.20;98.80;;;;;;4922104;29;20643;-73
2022/06/15 07:42:39;;;;;;;3.38;2.17;;;28.10;99.30;;;;;;4923411;29;20226;-74
2022/06/15 07:45:06;;;;;;;5.65;2.40;;;28.20;98.90;;;;;;4926659;29;20299;-73
2022/06/15 07:50:18;;;;;;;5.50;2.40;;;27.20;99.60;;;;;;4924160;29;20241;-74
2022/06/15 07:53:02;;;;;;;9.27;2.60;;;27.00;99.80;;;;;;4926456;29;20199;-74
2022/06/15 07:55:33;;;;;;;4.18;2.30;;;26.90;99.70;;;;;;4918891;29;20655;-74
2022/06/15 07:58:01;;;;;;;6.97;2.50;;;26.50;99.90;;;;;;4919290;29;20226;-75
2022/06/15 08:00:29;;;;;;;6.45;2.50;;;26.20;99.90;;;;;;4921577;29;20770;-74
2022/06/15 08:02:58;;;;;;;5.95;2.40;;;26.10;99.90;;;;;;4921889;29;20198;-74
2022/06/15 08:05:27;;;;;;;11.90;3.03;;;26.30;99.90;;;;;;4924838;29;20208;-74
2022/06/15 08:07:54;;;;;;;4.40;2.40;;;26.60;99.90;;;;;;4923421;29;20206;-74
2022/06/15 08:10:23;;;;;;;5.32;2.72;;;26.90;99.90;;;;;;4924411;29;20213;-73
2022/06/15 08:12:50;;;;;;;4.90;2.50;;;26.80;99.50;;;;;;4924767;29;20289;-72
2022/06/15 08:15:17;;;;;;;7.80;2.28;;;26.70;99.70;;;;;;4923540;29;20221;-75
2022/06/15 08:17:56;;;;;;;4.88;2.60;;;26.70;99.90;;;;;;4922139;29;20217;-74
2022/06/15 08:20:36;;;;;;;5.80;2.50;;;26.90;99.90;;;;;;4927473;29;20209;-71
2022/06/15 08:23:16;;;;;;;7.93;2.25;;;26.90;99.90;;;;;;4926739;29;20509;-74
2022/06/15 08:25:55;;;;;;;7.07;2.40;;;26.90;99.90;;;;;;4924894;29;20199;-74
2022/06/15 08:28:26;;;;;;;5.45;2.45;;;27.10;99.90;;;;;;4925757;29;20202;-74
2022/06/15 08:30:53;;;;;;;10.07;2.92;;;27.30;99.80;;;;;;4919525;29;20750;-74
2022/06/15 08:33:21;;;;;;;7.93;2.47;;;27.20;99.50;;;;;;4920322;29;20290;-74
2022/06/15 08:35:49;;;;;;;6.50;2.95;;;27.10;99.80;;;;;;4921546;29;20207;-73
2022/06/15 08:38:19;;;;;;;8.38;2.50;;;27.20;99.90;;;;;;4920494;29;20223;-72
2022/06/15 08:40:51;;;;;;;4.20;2.65;;;27.20;99.90;;;;;;4922429;29;20223;-75
2022/06/15 08:43:44;;;;;;;10.25;2.88;;;27.30;99.60;;;;;;4924459;29;20207;-74
2022/06/15 08:46:45;;;;;;;5.32;2.58;;;27.30;99.50;;;;;;4921381;29;20207;-74
2022/06/15 08:49:23;;;;;;;8.35;2.78;;;27.30;99.90;;;;;;4920568;29;20285;-74
2022/06/15 08:51:57;;;;;;;8.90;3.00;;;27.30;99.80;;;;;;4923131;29;20222;-74
2022/06/15 08:54:23;;;;;;;6.07;2.60;;;27.10;99.30;;;;;;4921548;29;20211;-74
2022/06/15 08:57:07;;;;;;;5.88;2.78;;;27.20;99.40;;;;;;4918846;29;20207;-74
2022/06/15 08:59:50;;;;;;;8.18;2.60;;;27.10;99.90;;;;;;4923788;29;20194;-75
2022/06/15 09:02:46;;;;;;;8.13;2.83;;;27.10;99.30;;;;;;4924766;29;20410;-75
2022/06/15 09:05:50;;;;;;;4.72;2.60;;;27.30;99.40;;;;;;4924045;29;20213;-72
2022/06/15 09:08:27;;;;;;;10.25;2.85;;;27.40;99.40;;;;;;4930109;29;20449;-74
2022/06/15 09:11:16;;;;;;;6.68;2.50;;;27.50;99.10;;;;;;4929566;29;20885;-74
2022/06/15 09:13:52;;;;;;;6.75;2.72;;;27.50;98.70;;;;;;4926657;29;20217;-73
2022/06/15 09:16:19;;;;;;;4.45;2.70;;;27.20;98.80;;;;;;4924520;29;20195;-73
2022/06/15 09:19:01;;;;;;;7.00;3.03;;;27.30;99.70;;;;;;4927325;29;20234;-73
2022/06/15 09:21:35;;;;;;;8.82;2.95;;;27.40;98.60;;;;;;4926920;29;20222;-74
2022/06/15 09:24:17;;;;;;;7.72;2.83;;;27.20;98.70;;;;;;4924685;29;20210;-73
2022/06/15 09:26:53;;;;;;;6.10;2.83;;;27.50;98.80;;;;;;4927994;29;20202;-74
2022/06/15 09:29:44;;;;;;;7.07;2.88;;;27.50;98.30;;;;;;4926118;29;20578;-74
2022/06/15 09:32:22;;;;;;;7.63;2.85;;;27.70;98.60;;;;;;4925415;29;20222;-74
2022/06/15 09:35:05;;;;;;;9.45;3.28;;;27.90;98.50;;;;;;4925360;29;20218;-74
2022/06/15 09:37:35;;;;;;;5.38;3.00;;;28.00;98.10;;;;;;4928578;29;20317;-75
2022/06/15 09:40:04;;;;;;;4.63;2.65;;;28.20;98.40;;;;;;4923883;29;20207;-74
2022/06/15 09:42:37;;;;;;;8.32;3.13;;;28.40;98.00;;;;;;4924604;29;20227;-72
2022/06/15 09:45:38;;;;;;;8.80;2.90;;;28.50;97.60;;;;;;4925996;29;20203;-73
2022/06/15 09:48:29;;;;;;;8.70;2.60;;;28.60;97.10;;;;;;4928154;29;20229;-75
2022/06/15 09:51:22;;;;;;;5.10;2.58;;;28.80;97.40;;;;;;4922278;29;20227;-74
2022/06/15 09:54:04;;;;;;;5.80;2.90;;;29.00;96.90;;;;;;4925032;29;20214;-74
2022/06/15 09:56:31;;;;;;;8.43;3.08;;;28.90;97.00;;;;;;4924664;29;20194;-74
2022/06/15 09:59:03;;;;;;;5.07;2.97;;;28.80;97.00;;;;;;4923910;29;20241;-74
2022/06/15 10:01:38;;;;;;;4.97;2.75;;;28.90;96.50;;;;;;4927134;29;20730;-75
2022/06/15 10:04:05;;;;;;;7.00;3.20;;;29.00;96.70;;;;;;4927291;29;20202;-74
2022/06/15 10:07:06;;;;;;;5.45;2.75;;;29.20;96.40;;;;;;4926924;29;20211;-74
2022/06/15 10:09:45;;;;;;;5.53;3.00;;;29.30;97.30;;;;;;4924491;29;20209;-73
2022/06/15 10:15:54;;;;;;;5.45;3.17;;;29.40;96.30;;;;;;4924789;29;20216;-73
2022/06/15 10:18:26;;;;;;;7.07;3.00;;;29.60;95.80;;;;;;4927757;29;20703;-74
2022/06/15 10:21:14;;;;;;;3.92;2.90;;;29.60;95.30;;;;;;4925863;29;20215;-73
2022/06/15 10:23:59;;;;;;;5.13;2.80;;;29.80;95.50;;;;;;4928338;29;20305;-75
2022/06/15 10:26:28;;;;;;;6.53;2.90;;;29.80;94.90;;;;;;4925383;29;20210;-75
2022/06/15 10:28:57;;;;;;;5.25;2.70;;;29.90;94.70;;;;;;4925846;29;20215;-74
2022/06/15 10:32:05;;;;;;;3.63;2.47;;;30.00;94.30;;;;;;4926972;29;20227;-75
2022/06/15 10:34:55;;;;;;;3.53;2.60;;;29.90;94.00;;;;;;4919504;29;20719;-74
2022/06/15 10:37:33;;;;;;;3.47;2.60;;;30.10;94.50;;;;;;4916648;29;20207;-73
2022/06/15 10:40:17;;;;;;;7.28;2.90;;;30.10;95.00;;;;;;4926090;29;20213;-74
2022/06/15 10:42:51;;;;;;;3.97;2.90;;;30.00;93.90;;;;;;4923788;29;20706;-74
2022/06/15 10:45:30;;;;;;;5.85;2.55;;;29.60;94.40;;;;;;4930245;29;20195;-73
2022/06/15 10:47:56;;;;;;;4.50;2.70;;;29.30;94.80;;;;;;4927329;29;20206;-73
2022/06/15 10:50:34;;;;;;;5.22;2.70;;;29.10;94.90;;;;;;4926500;29;20206;-72
2022/06/15 10:53:49;;;;;;;4.07;2.67;;;29.10;95.00;;;;;;4928065;29;20781;-73
2022/06/15 11:02:30;;;;;;;7.78;2.70;;;29.30;95.20;;;;;;4925265;29;20216;-74
2022/06/15 11:05:09;;;;;;;6.53;3.03;;;29.30;94.90;;;;;;4923550;29;20297;-74
2022/06/15 11:07:42;;;;;;;7.70;2.90;;;29.30;94.70;;;;;;4918508;29;20207;-73
2022/06/15 11:10:19;;;;;;;3.53;2.47;;;29.50;95.10;;;;;;4924073;29;20207;-73
2022/06/15 11:12:54;;;;;;;7.45;2.67;;;29.50;93.00;;;;;;4926098;29;21075;-74
2022/06/15 11:18:01;;;;;;;5.93;2.55;;;29.60;92.60;;;;;;4928105;29;20229;-74
2022/06/15 11:18:28;;;;;;;4.45;2.40;;;29.80;92.50;;;;;;4920367;29;20214;-75
2022/06/15 11:21:11;;;;;;;2.92;2.47;;;29.70;92.80;;;;;;4929030;29;20270;-73
2022/06/15 11:24:02;;;;;;;4.18;2.90;;;30.00;92.60;;;;;;4925763;29;20202;-74
2022/06/15 11:26:55;;;;;;;5.97;2.47;;;30.30;91.70;;;;;;4922152;29;20201;-74
2022/06/15 11:29:56;;;;;;;4.25;2.45;;;30.50;91.70;;;;;;4918279;29;20218;-74
2022/06/15 11:32:43;;;;;;;4.28;2.50;;;30.70;91.70;;;;;;4924629;29;20230;-74
2022/06/15 11:35:12;;;;;;;3.63;2.60;;;30.80;92.40;;;;;;4925247;29;20211;-74
2022/06/15 11:37:51;;;;;;;3.60;2.38;;;30.90;91.50;;;;;;4926069;29;20215;-76
2022/06/15 11:40:45;;;;;;;4.13;2.47;;;30.50;91.70;;;;;;4925107;29;20221;-75
2022/06/15 11:43:12;;;;;;;4.18;3.08;;;30.60;92.20;;;;;;4926297;29;20195;-75
2022/06/15 11:46:04;;;;;;;4.80;2.60;;;30.70;92.30;;;;;;4927775;29;20586;-76
2022/06/15 11:48:52;;;;;;;5.93;2.53;;;30.80;92.10;;;;;;4920888;29;20876;-75
2022/06/15 11:51:45;;;;;;;3.72;2.60;;;30.90;91.80;;;;;;4924481;29;20226;-75
2022/06/15 11:54:45;;;;;;;5.75;2.20;;;31.10;92.30;;;;;;4927087;29;20199;-76
2022/06/15 11:57:12;;;;;;;3.42;2.60;;;31.30;91.10;;;;;;4946533;28;20199;-76
2022/06/15 12:00:16;;;;;;;5.00;3.08;;;31.30;91.70;;;;;;4924304;29;20727;-75
2022/06/15 12:02:52;;;;;;;7.03;2.92;;;31.50;91.60;;;;;;4921702;29;20671;-76
2022/06/15 12:05:37;;;;;;;4.03;2.78;;;31.60;90.70;;;;;;4923099;29;20199;-74
2022/06/15 12:08:32;;;;;;;4.95;2.63;;;31.70;90.60;;;;;;4924983;29;20207;-75
2022/06/15 12:14:11;;;;;;;5.72;2.20;;;31.50;89.40;;;;;;4923117;29;20679;-75
2022/06/15 12:17:14;;;;;;;5.28;2.50;;;31.50;90.10;;;;;;4923625;29;20526;-75
2022/06/15 12:19:57;;;;;;;3.70;2.40;;;31.50;90.00;;;;;;4924986;29;20229;-75
2022/06/15 12:22:27;;;;;;;3.17;2.28;;;31.70;90.50;;;;;;4928919;29;20641;-76
2022/06/15 12:25:05;;;;;;;4.15;2.40;;;31.70;90.30;;;;;;4920977;29;20199;-75
2022/06/15 12:27:42;;;;;;;3.30;2.30;;;31.80;90.00;;;;;;4924467;29;20675;-75
2022/06/15 12:30:33;;;;;;;5.32;2.63;;;31.90;90.40;;;;;;4923639;29;21170;-75
2022/06/15 12:33:09;;;;;;;4.55;2.60;;;31.90;90.20;;;;;;4925971;29;20671;-74
2022/06/15 12:35:49;;;;;;;4.22;2.45;;;31.90;89.80;;;;;;4924249;29;22050;-75
2022/06/15 12:38:21;;;;;;;4.55;2.55;;;32.00;89.50;;;;;;4925494;29;20238;-76
2022/06/15 12:41:01;;;;;;;3.08;2.55;;;32.00;89.40;;;;;;4919246;29;20230;-75
2022/06/15 12:43:39;;;;;;;3.85;2.42;;;32.00;88.60;;;;;;4923091;29;20199;-75
2022/06/15 12:46:16;;;;;;;7.85;2.63;;;32.00;89.60;;;;;;4922826;29;21373;-75
2022/06/15 12:49:14;;;;;;;5.82;2.60;;;32.10;90.50;;;;;;4924918;29;20213;-75
2022/06/15 12:51:59;;;;;;;7.43;2.67;;;32.20;89.10;;;;;;4924442;29;20285;-76
2022/06/15 12:54:58;;;;;;;6.03;2.70;;;32.30;87.10;;;;;;4923778;29;20207;-75
2022/06/15 12:57:28;;;;;;;2.72;2.35;;;32.30;87.50;;;;;;4923450;29;20206;-75
2022/06/15 13:00:23;;;;;;;5.55;2.50;;;32.30;86.70;;;;;;4924925;29;20227;-74
2022/06/15 13:03:41;;;;;;;4.00;2.55;;;32.30;86.90;;;;;;4924460;29;20199;-77
2022/06/15 13:06:26;;;;;;;3.33;2.40;;;32.40;86.40;;;;;;4923988;29;20223;-76
2022/06/15 13:09:20;;;;;;;3.30;2.10;;;32.40;87.40;;;;;;4923885;29;20206;-75
2022/06/15 13:12:00;;;;;;;3.70;2.40;;;32.40;86.60;;;;;;4925699;29;20332;-75
2022/06/15 13:14:32;;;;;;;4.72;2.70;;;32.40;85.80;;;;;;4922803;29;20210;-76
2022/06/15 13:17:05;;;;;;;2.60;2.30;;;32.50;85.80;;;;;;4923966;29;20218;-76
2022/06/15 13:19:39;;;;;;;3.45;2.40;;;32.50;86.30;;;;;;4926624;29;20221;-76
2022/06/15 13:22:11;;;;;;;6.47;2.25;;;32.50;86.30;;;;;;4921961;29;20239;-75
2022/06/15 13:25:11;;;;;;;4.70;2.50;;;32.70;86.40;;;;;;4921810;29;20199;-75
2022/06/15 13:27:41;;;;;;;5.95;2.80;;;32.90;83.90;;;;;;4910229;29;20206;-75
2022/06/15 13:30:20;;;;;;;4.63;2.40;;;32.90;83.00;;;;;;4918703;29;20218;-75
2022/06/15 13:32:57;;;;;;;4.00;2.50;;;32.90;84.50;;;;;;4925550;29;20217;-75
2022/06/15 13:35:30;;;;;;;3.95;2.38;;;33.00;84.00;;;;;;4926150;29;20295;-75
2022/06/15 13:38:18;;;;;;;4.40;2.55;;;33.00;81.20;;;;;;4922975;29;20214;-76
2022/06/15 13:40:54;;;;;;;2.58;2.25;;;32.90;83.80;;;;;;4917865;29;20561;-75